Sandberg, California
Current Conditions -  °F | °C
As of 5:48 AM on Saturday 25 Oct 2014 (Local Time) from KSDB Reporting Station
Clear Clear  
Wind Chill: 60°   Ceiling: Unl
Heat Index: 60°   Visibility: 10mi
Dew Point: 19°   Wind: 15mph
Humidity: 20%   Direction: 190°S
Pressure: 30.12"   Gusts: 24mph
Location:  34.6849°N, 118.558°W
Report Text: KSDB 251248Z AUTO 19013G21KT 10SM CLR 16/M07 A3012 RMK AO2 SLP151 T01561072
Loading
Personal Weather Stations






























Interactive Weather Map
Tropical Storm Tracking
New forecast layout! Learn more

10-Day Weather Forecast

Advertisements
Track Severe Weather on mobile